Terminal Aerodrome Forecast
Issued by NWS Caribou, ME

Home | Current Version | Previous Version | Text Only | Print | Product List | Glossary On
Versions: 1 2 3 4 5 6 7 8 9 10 11 12 13 14 15 16 17 18 19 20 21
000
FTUS41 KCAR 171737
TAFBGR
TAF
KBGR 171737Z 1718/1818 06012KT 5SM -RA BR OVC007
     FM180000 01012KT 3SM -RASN BR OVC005
     FM180200 34012KT 2SM -SN BR OVC004
     FM181500 32012G19KT 5SM -SN BR OVC015=

USA.gov is the U.S. government's official web portal to all federal, state and local government web resources and services.